Time;durP1;ratioP1;P1;durP2;ratioP2;P2;SDS_P1;SDS_P2;PMS_P1;PMS_P2;Temp;Humidity;BMP_temperature;BMP_pressure;BME280_temperature;BME280_humidity;BME280_pressure;Samples;Min_cycle;Max_cycle;Signal;HPM_P1;HPM_P2
2023/12/07 00:01:58;;;;;;;11.00;6.77;;;;;;;;;;4979584;28;20449;-65
2023/12/07 00:04:26;;;;;;;11.37;6.80;;;;;;;;;;4976033;28;20473;-64
2023/12/07 00:06:56;;;;;;;11.83;7.53;;;;;;;;;;4978964;28;20720;-65
2023/12/07 00:09:24;;;;;;;15.83;7.70;;;;;;;;;;4973552;28;20265;-65
2023/12/07 00:11:52;;;;;;;11.33;7.03;;;;;;;;;;4978367;28;20336;-64
2023/12/07 00:14:20;;;;;;;10.43;7.37;;;;;;;;;;4979048;28;20450;-65
2023/12/07 00:16:49;;;;;;;13.53;7.37;;;;;;;;;;4979080;28;20453;-65
2023/12/07 00:19:17;;;;;;;12.83;8.20;;;;;;;;;;4978984;28;20518;-65
2023/12/07 00:21:45;;;;;;;9.37;7.47;;;;;;;;;;4978815;28;20956;-65
2023/12/07 00:24:15;;;;;;;12.43;7.63;;;;;;;;;;4978737;28;20441;-65
2023/12/07 00:26:44;;;;;;;12.23;8.03;;;;;;;;;;4969178;28;20553;-65
2023/12/07 00:29:12;;;;;;;13.23;7.80;;;;;;;;;;4977056;28;20452;-65
2023/12/07 00:31:45;;;;;;;10.83;7.60;;;;;;;;;;4978777;28;20564;-65
2023/12/07 00:34:13;;;;;;;14.07;8.37;;;;;;;;;;4978672;28;20936;-65
2023/12/07 00:36:41;;;;;;;12.00;8.30;;;;;;;;;;4978531;28;20512;-65
2023/12/07 00:39:10;;;;;;;10.70;7.70;;;;;;;;;;4978972;28;20445;-65
2023/12/07 00:41:39;;;;;;;11.30;8.10;;;;;;;;;;4980376;28;20475;-65
2023/12/07 00:44:07;;;;;;;11.50;8.17;;;;;;;;;;4972032;28;20469;-65
2023/12/07 00:46:36;;;;;;;14.60;7.63;;;;;;;;;;4977740;28;20962;-65
2023/12/07 00:49:04;;;;;;;16.43;8.07;;;;;;;;;;4978761;28;20515;-65
2023/12/07 00:51:32;;;;;;;11.50;7.23;;;;;;;;;;4977702;28;20493;-65
2023/12/07 00:54:00;;;;;;;11.50;8.17;;;;;;;;;;4978643;28;20452;-64
2023/12/07 00:56:28;;;;;;;11.17;8.13;;;;;;;;;;4978434;28;20449;-64
2023/12/07 00:58:58;;;;;;;12.57;8.27;;;;;;;;;;4981140;28;20452;-64
2023/12/07 01:01:26;;;;;;;11.10;7.73;;;;;;;;;;4971481;28;20476;-64
2023/12/07 01:03:54;;;;;;;13.43;8.73;;;;;;;;;;4971427;28;20468;-64
2023/12/07 01:06:22;;;;;;;12.57;8.47;;;;;;;;;;4978424;28;20472;-64
2023/12/07 01:08:51;;;;;;;18.20;9.90;;;;;;;;;;4978612;28;20441;-64
2023/12/07 01:11:19;;;;;;;14.73;9.50;;;;;;;;;;4976545;28;20492;-64
2023/12/07 01:13:47;;;;;;;10.77;8.40;;;;;;;;;;4978418;28;20441;-62
2023/12/07 01:16:17;;;;;;;15.30;8.97;;;;;;;;;;4978522;28;20452;-62
2023/12/07 01:18:45;;;;;;;14.00;9.13;;;;;;;;;;4975336;28;20476;-62
2023/12/07 01:21:13;;;;;;;13.57;8.97;;;;;;;;;;4974601;28;20473;-62
2023/12/07 01:23:42;;;;;;;14.80;9.53;;;;;;;;;;4978464;28;20480;-62
2023/12/07 01:26:10;;;;;;;11.80;7.30;;;;;;;;;;4978324;28;20444;-62
2023/12/07 01:28:39;;;;;;;21.57;9.80;;;;;;;;;;4982424;28;20440;-62
2023/12/07 01:31:07;;;;;;;13.47;9.07;;;;;;;;;;4982094;28;20487;-62
2023/12/07 01:33:37;;;;;;;19.83;10.03;;;;;;;;;;4982280;28;20445;-62
2023/12/07 01:36:05;;;;;;;16.43;9.00;;;;;;;;;;4990257;28;20441;-62
2023/12/07 01:38:33;;;;;;;17.80;10.23;;;;;;;;;;4969447;28;20461;-63
2023/12/07 01:41:01;;;;;;;12.80;8.60;;;;;;;;;;4982711;28;20473;-64
2023/12/07 01:43:30;;;;;;;13.60;9.87;;;;;;;;;;4981679;28;20525;-62
2023/12/07 01:45:58;;;;;;;11.87;8.47;;;;;;;;;;4977065;28;20450;-62
2023/12/07 01:48:27;;;;;;;15.40;9.43;;;;;;;;;;4978155;28;20548;-62
2023/12/07 01:50:58;;;;;;;14.70;8.90;;;;;;;;;;4981767;28;20474;-62
2023/12/07 01:53:27;;;;;;;14.80;8.77;;;;;;;;;;4981601;28;20445;-63
2023/12/07 01:55:55;;;;;;;17.43;9.37;;;;;;;;;;4975658;28;20833;-62
2023/12/07 01:58:24;;;;;;;14.03;8.40;;;;;;;;;;4985484;28;21077;-62
2023/12/07 02:04:13;;;;;;;15.20;8.63;;;;;;;;;;4975165;28;20400;-64
2023/12/07 02:06:43;;;;;;;13.63;8.70;;;;;;;;;;4981411;28;20448;-65
2023/12/07 02:09:11;;;;;;;16.10;8.97;;;;;;;;;;4981735;28;20453;-64
2023/12/07 02:11:39;;;;;;;14.00;8.43;;;;;;;;;;4981238;28;20484;-64
2023/12/07 02:14:07;;;;;;;14.83;8.27;;;;;;;;;;4981362;28;20445;-64
2023/12/07 02:16:40;;;;;;;14.50;9.63;;;;;;;;;;4973583;28;21011;-65
2023/12/07 02:19:15;;;;;;;11.97;7.90;;;;;;;;;;4977383;28;20449;-65
2023/12/07 02:21:48;;;;;;;15.60;8.67;;;;;;;;;;4981114;28;20728;-65
2023/12/07 02:24:20;;;;;;;14.87;8.93;;;;;;;;;;4980808;28;20448;-64
2023/12/07 02:26:49;;;;;;;14.20;9.07;;;;;;;;;;4981245;28;20445;-64
2023/12/07 02:29:18;;;;;;;16.97;8.83;;;;;;;;;;4980904;28;20449;-64
2023/12/07 02:31:46;;;;;;;14.30;9.50;;;;;;;;;;4981010;28;20488;-64
2023/12/07 02:34:14;;;;;;;13.20;7.67;;;;;;;;;;4978275;28;20448;-64
2023/12/07 02:36:44;;;;;;;12.47;8.33;;;;;;;;;;4976125;28;20457;-65
2023/12/07 02:39:13;;;;;;;15.57;8.13;;;;;;;;;;4980491;28;20496;-64
2023/12/07 02:41:42;;;;;;;13.50;8.77;;;;;;;;;;4979914;28;20457;-65
2023/12/07 02:44:12;;;;;;;13.60;8.40;;;;;;;;;;4980696;28;20476;-64
2023/12/07 02:46:40;;;;;;;10.30;7.73;;;;;;;;;;4980627;28;20206;-64
2023/12/07 02:49:07;;;;;;;11.30;7.73;;;;;;;;;;4974120;28;20481;-64
2023/12/07 02:51:36;;;;;;;15.10;7.60;;;;;;;;;;4980673;28;20479;-64
2023/12/07 02:54:04;;;;;;;12.87;7.30;;;;;;;;;;4974497;28;20458;-64
2023/12/07 02:56:32;;;;;;;11.40;6.97;;;;;;;;;;4976250;28;20452;-62
2023/12/07 02:59:00;;;;;;;13.20;7.90;;;;;;;;;;4972405;28;20450;-62
2023/12/07 03:01:29;;;;;;;12.57;7.97;;;;;;;;;;4980698;28;20469;-62
2023/12/07 03:03:57;;;;;;;14.27;8.93;;;;;;;;;;4980134;28;20878;-63
2023/12/07 03:06:25;;;;;;;11.53;8.10;;;;;;;;;;4980472;28;20455;-63
2023/12/07 03:08:53;;;;;;;13.53;9.00;;;;;;;;;;4980315;28;20948;-63
2023/12/07 03:11:22;;;;;;;14.67;8.67;;;;;;;;;;4972670;28;20491;-65
2023/12/07 03:13:50;;;;;;;14.87;7.50;;;;;;;;;;4980272;28;20472;-65
2023/12/07 03:16:18;;;;;;;14.10;8.20;;;;;;;;;;4978254;28;20500;-64
2023/12/07 03:18:47;;;;;;;13.50;8.17;;;;;;;;;;4977810;28;20445;-65
2023/12/07 03:21:15;;;;;;;13.77;8.33;;;;;;;;;;4975233;28;20834;-65
2023/12/07 03:23:43;;;;;;;13.73;7.83;;;;;;;;;;4980210;28;20469;-65
2023/12/07 03:26:11;;;;;;;12.10;7.90;;;;;;;;;;4980009;28;20484;-65
2023/12/07 03:28:39;;;;;;;12.40;7.87;;;;;;;;;;4980165;28;20249;-65
2023/12/07 03:31:07;;;;;;;12.30;7.83;;;;;;;;;;4980081;28;20249;-65
2023/12/07 03:33:38;;;;;;;13.37;8.43;;;;;;;;;;4979867;28;20317;-65
2023/12/07 03:36:08;;;;;;;14.03;7.63;;;;;;;;;;4979559;28;20611;-65
2023/12/07 03:38:36;;;;;;;12.70;7.80;;;;;;;;;;4974660;28;20864;-65
2023/12/07 03:41:04;;;;;;;13.03;8.70;;;;;;;;;;4978483;28;20816;-65
2023/12/07 03:43:32;;;;;;;16.17;8.23;;;;;;;;;;4979488;28;20445;-65
2023/12/07 03:46:00;;;;;;;17.67;10.27;;;;;;;;;;4979788;28;20476;-65
2023/12/07 03:48:29;;;;;;;20.37;9.00;;;;;;;;;;4979346;28;20532;-65
2023/12/07 03:50:57;;;;;;;12.97;8.03;;;;;;;;;;4978686;28;20499;-65
2023/12/07 03:53:26;;;;;;;15.07;8.60;;;;;;;;;;4979386;28;20539;-65
2023/12/07 03:55:55;;;;;;;14.50;8.13;;;;;;;;;;4979647;28;20441;-65
2023/12/07 03:58:23;;;;;;;18.10;9.37;;;;;;;;;;4976064;28;20466;-65
2023/12/07 04:00:51;;;;;;;15.77;9.27;;;;;;;;;;4972450;28;20464;-64
2023/12/07 04:03:19;;;;;;;18.43;9.23;;;;;;;;;;4979499;28;20437;-62
2023/12/07 04:05:47;;;;;;;16.80;8.70;;;;;;;;;;4975587;28;20811;-65
2023/12/07 04:08:15;;;;;;;15.13;8.20;;;;;;;;;;4979335;28;20504;-62
2023/12/07 04:10:45;;;;;;;14.17;8.27;;;;;;;;;;4979149;28;20489;-62
2023/12/07 04:13:13;;;;;;;14.77;8.97;;;;;;;;;;4979326;28;20485;-64
2023/12/07 04:15:41;;;;;;;16.90;8.83;;;;;;;;;;4978636;28;20808;-64
2023/12/07 04:18:09;;;;;;;14.60;8.43;;;;;;;;;;4979165;28;20453;-64
2023/12/07 04:20:37;;;;;;;16.10;9.43;;;;;;;;;;4972935;28;20480;-64
2023/12/07 04:23:07;;;;;;;15.03;9.03;;;;;;;;;;4973783;28;20441;-64
2023/12/07 04:25:35;;;;;;;18.13;10.07;;;;;;;;;;4975415;28;20448;-62
2023/12/07 04:28:05;;;;;;;23.20;11.37;;;;;;;;;;4978365;28;20441;-64
2023/12/07 04:30:33;;;;;;;22.77;10.83;;;;;;;;;;4979203;28;20477;-64
2023/12/07 04:33:01;;;;;;;20.70;10.40;;;;;;;;;;4978465;28;20512;-64
2023/12/07 04:35:30;;;;;;;21.53;10.03;;;;;;;;;;4978447;28;20904;-63
2023/12/07 04:37:58;;;;;;;20.33;10.93;;;;;;;;;;4978908;28;20445;-64
2023/12/07 04:40:26;;;;;;;19.90;10.30;;;;;;;;;;4980370;28;20469;-64
2023/12/07 04:42:54;;;;;;;19.53;9.17;;;;;;;;;;4975812;28;20467;-64
2023/12/07 04:45:23;;;;;;;15.37;9.60;;;;;;;;;;4970712;28;20445;-64
2023/12/07 04:47:51;;;;;;;22.53;10.10;;;;;;;;;;4974330;28;20452;-64
2023/12/07 04:50:19;;;;;;;18.27;10.10;;;;;;;;;;4978412;28;20445;-64
2023/12/07 04:52:47;;;;;;;23.50;11.33;;;;;;;;;;4978183;28;20988;-64
2023/12/07 04:55:16;;;;;;;20.43;9.90;;;;;;;;;;4978570;28;20944;-65
2023/12/07 04:57:44;;;;;;;19.70;10.53;;;;;;;;;;4980291;28;20212;-64
2023/12/07 05:00:13;;;;;;;18.60;9.70;;;;;;;;;;4978420;28;20606;-64
2023/12/07 05:02:42;;;;;;;26.37;12.70;;;;;;;;;;4976194;28;20235;-65
2023/12/07 05:05:11;;;;;;;19.83;10.47;;;;;;;;;;4969831;28;20199;-64
2023/12/07 05:07:45;;;;;;;17.00;9.90;;;;;;;;;;4978050;28;20206;-64
2023/12/07 05:10:14;;;;;;;18.97;10.20;;;;;;;;;;4977354;28;20681;-64
2023/12/07 05:12:42;;;;;;;23.20;10.47;;;;;;;;;;4976532;28;20201;-65
2023/12/07 05:15:10;;;;;;;19.80;10.33;;;;;;;;;;4977939;28;20572;-64
2023/12/07 05:17:38;;;;;;;19.90;10.47;;;;;;;;;;4977990;28;20607;-64
2023/12/07 05:20:09;;;;;;;24.47;9.90;;;;;;;;;;4977697;28;20230;-64
2023/12/07 05:22:37;;;;;;;24.53;11.60;;;;;;;;;;4978482;28;20460;-64
2023/12/07 05:25:05;;;;;;;24.67;11.23;;;;;;;;;;4973602;28;20480;-63
2023/12/07 05:27:33;;;;;;;18.00;10.63;;;;;;;;;;4978490;28;20449;-63
2023/12/07 05:30:01;;;;;;;20.87;10.53;;;;;;;;;;4977872;28;20476;-63
2023/12/07 05:32:29;;;;;;;20.37;10.63;;;;;;;;;;4978341;28;20445;-64
2023/12/07 05:34:58;;;;;;;18.10;10.57;;;;;;;;;;4978109;28;20477;-64
2023/12/07 05:37:27;;;;;;;25.00;11.63;;;;;;;;;;4977253;28;20448;-63
2023/12/07 05:39:56;;;;;;;20.17;10.63;;;;;;;;;;4977871;28;20478;-64
2023/12/07 05:42:24;;;;;;;19.83;10.53;;;;;;;;;;4975643;28;20507;-63
2023/12/07 05:44:53;;;;;;;19.30;10.37;;;;;;;;;;4979682;28;20519;-63
2023/12/07 05:47:27;;;;;;;19.93;10.83;;;;;;;;;;4978188;28;20457;-64
2023/12/07 05:49:57;;;;;;;23.93;11.60;;;;;;;;;;4977576;28;20436;-64
2023/12/07 05:52:26;;;;;;;19.30;10.70;;;;;;;;;;4977249;28;21225;-64
2023/12/07 05:54:55;;;;;;;21.00;11.10;;;;;;;;;;4975520;28;20488;-64
2023/12/07 05:57:23;;;;;;;18.23;9.30;;;;;;;;;;4972137;28;20456;-63
2023/12/07 05:59:52;;;;;;;20.50;9.83;;;;;;;;;;4977992;28;20452;-63
2023/12/07 06:02:20;;;;;;;23.83;11.50;;;;;;;;;;4977115;28;20465;-63
2023/12/07 06:04:48;;;;;;;21.37;10.20;;;;;;;;;;4977583;28;20437;-63
2023/12/07 06:14:11;;;;;;;15.97;8.97;;;;;;;;;;4970248;28;20478;-64
2023/12/07 06:16:39;;;;;;;18.57;10.13;;;;;;;;;;4979282;28;20441;-64
2023/12/07 06:19:07;;;;;;;16.23;9.07;;;;;;;;;;4980503;28;20854;-64
2023/12/07 06:21:36;;;;;;;16.63;9.70;;;;;;;;;;4978841;28;20465;-64
2023/12/07 06:24:04;;;;;;;16.00;8.70;;;;;;;;;;4981360;28;20468;-64
2023/12/07 06:26:32;;;;;;;14.87;8.27;;;;;;;;;;4981298;28;20445;-64
2023/12/07 06:29:00;;;;;;;16.43;8.60;;;;;;;;;;4978352;28;20516;-64
2023/12/07 06:31:33;;;;;;;15.13;8.03;;;;;;;;;;4977495;28;20472;-64
2023/12/07 06:34:01;;;;;;;18.17;8.80;;;;;;;;;;4981109;28;20485;-64
2023/12/07 06:36:39;;;;;;;15.43;8.50;;;;;;;;;;4980955;28;20476;-64
2023/12/07 06:39:07;;;;;;;14.73;8.80;;;;;;;;;;4975554;28;20505;-64
2023/12/07 06:41:36;;;;;;;15.70;8.37;;;;;;;;;;4984658;28;20489;-64
2023/12/07 06:44:04;;;;;;;15.83;8.03;;;;;;;;;;4980372;28;20445;-63
2023/12/07 06:46:33;;;;;;;14.63;8.57;;;;;;;;;;4980717;28;20445;-64
2023/12/07 06:52:30;;;;;;;16.10;8.77;;;;;;;;;;4968941;28;20425;-65
2023/12/07 06:58:19;;;;;;;16.33;8.40;;;;;;;;;;4976482;28;20440;-65
2023/12/07 07:00:49;;;;;;;15.37;9.03;;;;;;;;;;4973947;28;20468;-65
2023/12/07 07:03:18;;;;;;;13.73;8.23;;;;;;;;;;4979912;28;20449;-65
2023/12/07 07:05:46;;;;;;;12.20;7.73;;;;;;;;;;4976277;28;20507;-66
2023/12/07 07:08:14;;;;;;;16.73;8.87;;;;;;;;;;4983129;28;20447;-65
2023/12/07 07:10:42;;;;;;;16.10;9.60;;;;;;;;;;4984671;28;20461;-66
2023/12/07 07:13:10;;;;;;;18.80;9.83;;;;;;;;;;4986399;28;20455;-65
2023/12/07 07:15:38;;;;;;;15.97;8.60;;;;;;;;;;4984900;28;20492;-65
2023/12/07 07:18:06;;;;;;;15.10;9.03;;;;;;;;;;4983565;28;20780;-66
2023/12/07 07:20:36;;;;;;;13.23;7.13;;;;;;;;;;4981016;28;20507;-65
2023/12/07 07:23:04;;;;;;;13.47;7.33;;;;;;;;;;4978815;28;20492;-65
2023/12/07 07:25:32;;;;;;;13.97;7.67;;;;;;;;;;4975588;28;20445;-65
2023/12/07 07:28:00;;;;;;;12.30;8.30;;;;;;;;;;4986391;28;20444;-65
2023/12/07 07:33:57;;;;;;;15.90;7.73;;;;;;;;;;4987558;28;20513;-65
2023/12/07 07:39:54;;;;;;;12.30;8.53;;;;;;;;;;4980380;28;20463;-65
2023/12/07 07:45:45;;;;;;;12.73;8.33;;;;;;;;;;4972861;28;20495;-65
2023/12/07 07:48:14;;;;;;;15.03;9.60;;;;;;;;;;4978652;28;20512;-65
2023/12/07 07:50:44;;;;;;;15.00;8.37;;;;;;;;;;4978842;28;20989;-65
2023/12/07 07:53:13;;;;;;;13.63;7.67;;;;;;;;;;4976086;28;20540;-65
2023/12/07 07:55:45;;;;;;;18.93;8.93;;;;;;;;;;4979473;28;20487;-65
2023/12/07 07:58:13;;;;;;;12.10;8.30;;;;;;;;;;4980326;28;20441;-65
2023/12/07 08:00:43;;;;;;;16.17;8.93;;;;;;;;;;4973277;28;20531;-65
2023/12/07 08:03:12;;;;;;;15.20;8.17;;;;;;;;;;4981209;28;20445;-65
2023/12/07 08:05:49;;;;;;;15.13;9.37;;;;;;;;;;4980516;28;20440;-65
2023/12/07 08:08:19;;;;;;;13.20;7.97;;;;;;;;;;4974633;28;20525;-65
2023/12/07 08:10:49;;;;;;;17.47;9.33;;;;;;;;;;4981893;28;20490;-65
2023/12/07 08:13:27;;;;;;;17.60;9.50;;;;;;;;;;4978949;28;20440;-65
2023/12/07 08:15:57;;;;;;;16.00;9.57;;;;;;;;;;4977292;28;20525;-65
2023/12/07 08:18:27;;;;;;;21.50;10.27;;;;;;;;;;4977054;28;20445;-65
2023/12/07 08:23:51;;;;;;;21.30;10.03;;;;;;;;;;4976818;28;20736;-65
2023/12/07 08:26:21;;;;;;;19.40;10.17;;;;;;;;;;4979698;28;20202;-65
2023/12/07 08:28:53;;;;;;;16.80;9.87;;;;;;;;;;4974283;28;20205;-65
2023/12/07 08:31:23;;;;;;;20.20;11.70;;;;;;;;;;4977337;28;20232;-65
2023/12/07 08:41:13;;;;;;;12.90;8.20;;;;;;;;;;4975717;28;20245;-73
2023/12/07 08:44:14;;;;;;;15.07;9.30;;;;;;;;;;4977382;28;20208;-73
2023/12/07 08:47:19;;;;;;;13.73;8.97;;;;;;;;;;4977513;28;20202;-76
2023/12/07 08:53:53;;;;;;;14.37;8.23;;;;;;;;;;4925037;29;20247;-73
2023/12/07 08:57:21;;;;;;;;;;;;;;;;;;;;;
2023/12/07 09:06:31;;;;;;;16.20;10.43;;;;;;;;;;4571928;27;16424853;-73
2023/12/07 09:09:30;;;;;;;17.13;10.37;;;;;;;;;;5147546;27;20204;-71
2023/12/07 09:12:06;;;;;;;15.10;9.50;;;;;;;;;;5151941;27;20302;-73
2023/12/07 09:14:35;;;;;;;21.53;10.97;;;;;;;;;;5155627;27;20190;-74
2023/12/07 09:17:06;;;;;;;16.50;9.37;;;;;;;;;;5155495;27;20203;-78
2023/12/07 09:19:34;;;;;;;17.27;9.67;;;;;;;;;;5152961;27;20665;-69
2023/12/07 09:22:09;;;;;;;14.13;9.60;;;;;;;;;;5149298;27;20276;-72
2023/12/07 09:24:52;;;;;;;14.03;8.80;;;;;;;;;;5152283;27;20227;-71
2023/12/07 09:27:20;;;;;;;13.17;7.97;;;;;;;;;;5154564;27;20603;-70
2023/12/07 09:29:50;;;;;;;11.23;8.50;;;;;;;;;;5155051;27;20204;-72
2023/12/07 09:32:22;;;;;;;12.57;8.43;;;;;;;;;;5154311;27;20754;-72
2023/12/07 09:35:28;;;;;;;17.17;9.60;;;;;;;;;;5147395;27;20196;-71
2023/12/07 09:37:59;;;;;;;15.10;8.90;;;;;;;;;;5139774;27;20204;-73
2023/12/07 09:40:29;;;;;;;12.33;8.73;;;;;;;;;;5139872;27;20216;-72
2023/12/07 09:43:07;;;;;;;10.43;7.67;;;;;;;;;;5146954;27;20203;-70
2023/12/07 09:45:58;;;;;;;12.73;7.80;;;;;;;;;;5141633;27;20212;-73
2023/12/07 09:48:28;;;;;;;12.93;9.10;;;;;;;;;;5137004;27;20192;-72
2023/12/07 09:50:57;;;;;;;17.33;8.97;;;;;;;;;;5148696;27;20587;-72
2023/12/07 09:53:26;;;;;;;15.97;9.33;;;;;;;;;;5155768;27;20444;-72
2023/12/07 09:55:57;;;;;;;12.60;8.43;;;;;;;;;;5145249;27;20223;-72
2023/12/07 09:58:26;;;;;;;15.40;9.23;;;;;;;;;;5148231;27;20662;-71
2023/12/07 10:01:06;;;;;;;10.83;8.83;;;;;;;;;;5137978;27;20250;-69
2023/12/07 10:03:54;;;;;;;12.73;9.13;;;;;;;;;;5136525;27;20265;-69
2023/12/07 10:06:43;;;;;;;13.90;8.07;;;;;;;;;;5097312;28;20221;-64
2023/12/07 10:09:14;;;;;;;11.30;8.30;;;;;;;;;;5113430;28;20209;-63
2023/12/07 10:12:02;;;;;;;12.13;7.97;;;;;;;;;;5104656;28;20283;-63
2023/12/07 10:14:30;;;;;;;11.03;7.87;;;;;;;;;;5105906;28;20200;-65
2023/12/07 10:17:00;;;;;;;12.23;8.10;;;;;;;;;;5101881;28;20205;-63
2023/12/07 10:19:29;;;;;;;11.40;7.33;;;;;;;;;;5099694;28;20198;-63
2023/12/07 10:22:00;;;;;;;9.63;6.27;;;;;;;;;;5096221;28;20296;-64
2023/12/07 10:27:51;;;;;;;7.93;5.90;;;;;;;;;;5094690;28;20933;-64
2023/12/07 10:30:25;;;;;;;10.80;6.10;;;;;;;;;;5098959;28;20952;-63
2023/12/07 10:32:54;;;;;;;11.73;6.27;;;;;;;;;;5089887;28;20821;-63
2023/12/07 10:35:23;;;;;;;7.90;6.47;;;;;;;;;;5097884;28;20198;-64
2023/12/07 10:40:33;;;;;;;8.33;5.83;;;;;;;;;;5093457;28;20464;-64
2023/12/07 10:43:05;;;;;;;6.93;5.30;;;;;;;;;;5091448;28;20472;-65
2023/12/07 10:45:34;;;;;;;9.90;6.10;;;;;;;;;;5095718;28;20479;-65
2023/12/07 10:48:05;;;;;;;8.33;6.07;;;;;;;;;;5082799;28;20808;-64
2023/12/07 10:50:35;;;;;;;9.57;5.87;;;;;;;;;;5092538;28;20531;-64
2023/12/07 10:53:07;;;;;;;6.83;5.13;;;;;;;;;;5096334;28;20440;-61
2023/12/07 10:55:40;;;;;;;7.77;5.20;;;;;;;;;;5094936;28;20479;-63
2023/12/07 11:01:39;;;;;;;9.27;5.17;;;;;;;;;;5083959;28;20415;-63
2023/12/07 11:04:08;;;;;;;9.60;5.90;;;;;;;;;;5093719;28;20480;-66
2023/12/07 11:10:17;;;;;;;6.97;4.63;;;;;;;;;;5126456;27;20187;-64
2023/12/07 11:12:48;;;;;;;10.87;6.20;;;;;;;;;;5127463;27;20209;-63
2023/12/07 11:15:17;;;;;;;6.30;4.97;;;;;;;;;;5135683;27;20607;-63
2023/12/07 11:17:50;;;;;;;11.07;6.17;;;;;;;;;;5133882;27;20717;-63
2023/12/07 11:20:49;;;;;;;10.07;6.17;;;;;;;;;;5128937;27;20454;-63
2023/12/07 11:23:18;;;;;;;9.47;4.63;;;;;;;;;;5131684;27;20463;-63
2023/12/07 11:25:46;;;;;;;9.23;5.70;;;;;;;;;;5139417;27;20883;-63
2023/12/07 11:28:16;;;;;;;9.60;5.73;;;;;;;;;;5138534;27;20438;-64
2023/12/07 11:30:45;;;;;;;9.50;5.80;;;;;;;;;;5133609;27;20469;-63
2023/12/07 11:33:15;;;;;;;8.13;5.60;;;;;;;;;;5135950;27;20442;-63
2023/12/07 11:36:02;;;;;;;7.47;5.43;;;;;;;;;;5130850;27;20457;-64
2023/12/07 11:38:30;;;;;;;7.83;5.30;;;;;;;;;;5130704;27;20470;-64
2023/12/07 11:40:58;;;;;;;8.53;4.97;;;;;;;;;;5139540;27;20464;-64
2023/12/07 11:43:45;;;;;;;11.17;5.70;;;;;;;;;;5135192;27;20467;-64
2023/12/07 11:46:17;;;;;;;7.80;5.27;;;;;;;;;;5129485;27;20265;-64
2023/12/07 11:48:50;;;;;;;9.10;5.77;;;;;;;;;;5138045;27;20444;-63
2023/12/07 11:51:22;;;;;;;8.57;4.50;;;;;;;;;;5122796;27;20454;-64
2023/12/07 11:53:51;;;;;;;7.87;5.20;;;;;;;;;;5125340;27;20209;-64
2023/12/07 11:59:48;;;;;;;4.53;3.77;;;;;;;;;;5133173;27;20439;-64
2023/12/07 12:02:17;;;;;;;5.90;4.53;;;;;;;;;;5135414;27;20472;-63
2023/12/07 12:04:46;;;;;;;6.43;4.07;;;;;;;;;;5131777;27;20478;-63
2023/12/07 12:07:33;;;;;;;6.27;4.30;;;;;;;;;;5138044;27;20557;-63
2023/12/07 12:10:03;;;;;;;5.73;4.23;;;;;;;;;;5134968;27;20449;-64
2023/12/07 12:12:33;;;;;;;6.57;4.10;;;;;;;;;;5131385;27;20442;-64
2023/12/07 12:15:02;;;;;;;4.97;3.93;;;;;;;;;;5132990;27;20568;-64
2023/12/07 12:17:31;;;;;;;7.27;4.57;;;;;;;;;;5138387;27;20917;-63
2023/12/07 12:20:00;;;;;;;9.40;4.80;;;;;;;;;;5129212;27;20438;-62
2023/12/07 12:25:51;;;;;;;9.00;5.63;;;;;;;;;;5128313;27;20338;-62
2023/12/07 12:28:22;;;;;;;7.90;5.37;;;;;;;;;;5136463;27;20217;-62
2023/12/07 12:30:51;;;;;;;9.17;6.30;;;;;;;;;;5138138;27;20231;-62
2023/12/07 12:33:19;;;;;;;11.23;5.47;;;;;;;;;;5133027;27;20207;-62
2023/12/07 12:36:00;;;;;;;8.00;5.40;;;;;;;;;;5122996;27;20239;-63
2023/12/07 12:38:29;;;;;;;20.80;5.90;;;;;;;;;;5122512;27;20197;-62
2023/12/07 12:41:09;;;;;;;7.53;5.57;;;;;;;;;;5134248;27;20219;-62
2023/12/07 12:43:39;;;;;;;8.90;6.03;;;;;;;;;;5126958;27;20241;-62
2023/12/07 12:46:07;;;;;;;8.63;5.63;;;;;;;;;;5137993;27;20219;-60
2023/12/07 12:48:36;;;;;;;7.30;5.60;;;;;;;;;;5124209;27;20564;-62
2023/12/07 12:51:14;;;;;;;10.03;5.40;;;;;;;;;;5133372;27;20220;-60
2023/12/07 12:53:46;;;;;;;11.07;6.10;;;;;;;;;;5130628;27;20631;-60
2023/12/07 12:56:20;;;;;;;8.07;5.73;;;;;;;;;;5134027;27;20731;-60
2023/12/07 12:58:49;;;;;;;7.90;5.70;;;;;;;;;;5137310;27;20211;-60
2023/12/07 13:01:18;;;;;;;7.93;5.30;;;;;;;;;;5137812;27;20228;-61
2023/12/07 13:03:47;;;;;;;8.47;5.93;;;;;;;;;;5129955;28;20200;-60
2023/12/07 13:06:17;;;;;;;7.77;5.57;;;;;;;;;;5132844;28;20239;-60
2023/12/07 13:08:45;;;;;;;6.40;4.90;;;;;;;;;;5127432;28;20226;-59
2023/12/07 13:14:49;;;;;;;8.43;4.73;;;;;;;;;;5125319;28;20624;-59
2023/12/07 13:17:17;;;;;;;9.17;4.90;;;;;;;;;;5132652;28;20236;-59
2023/12/07 13:19:45;;;;;;;9.30;4.67;;;;;;;;;;5137449;28;20291;-61
2023/12/07 13:22:15;;;;;;;4.80;4.13;;;;;;;;;;5134098;28;20259;-59
2023/12/07 13:24:45;;;;;;;6.73;4.20;;;;;;;;;;5129430;28;20200;-60
2023/12/07 13:27:17;;;;;;;4.50;3.17;;;;;;;;;;5134150;28;20231;-60
2023/12/07 13:29:45;;;;;;;4.10;2.90;;;;;;;;;;5131531;28;20205;-62
2023/12/07 13:32:13;;;;;;;3.80;3.47;;;;;;;;;;5137288;28;20226;-62
2023/12/07 13:34:42;;;;;;;4.53;3.80;;;;;;;;;;5126011;28;20200;-61
2023/12/07 13:37:10;;;;;;;5.43;3.67;;;;;;;;;;5137757;28;20196;-62
2023/12/07 13:39:40;;;;;;;7.40;3.40;;;;;;;;;;5131027;28;20229;-62
2023/12/07 13:42:08;;;;;;;5.77;3.67;;;;;;;;;;5137326;28;20654;-61
2023/12/07 13:44:36;;;;;;;3.77;3.33;;;;;;;;;;5137032;28;20242;-61
2023/12/07 13:47:04;;;;;;;6.50;4.00;;;;;;;;;;5132841;28;20559;-61
2023/12/07 13:49:33;;;;;;;4.13;3.30;;;;;;;;;;5134110;28;20197;-62
2023/12/07 13:52:02;;;;;;;4.60;3.93;;;;;;;;;;5132561;27;20216;-61
2023/12/07 13:54:37;;;;;;;5.70;3.67;;;;;;;;;;5127748;27;20533;-61
2023/12/07 13:57:10;;;;;;;5.40;3.70;;;;;;;;;;5135993;27;20200;-60
2023/12/07 13:59:40;;;;;;;4.90;3.47;;;;;;;;;;5139473;27;20201;-62
2023/12/07 14:02:12;;;;;;;5.83;4.43;;;;;;;;;;5141313;27;20307;-61
2023/12/07 14:04:40;;;;;;;4.73;4.23;;;;;;;;;;5133039;27;20281;-61
2023/12/07 14:07:09;;;;;;;5.60;4.00;;;;;;;;;;5135741;27;20718;-61
2023/12/07 14:09:37;;;;;;;7.70;4.10;;;;;;;;;;5139661;27;20240;-61
2023/12/07 14:12:22;;;;;;;5.73;3.93;;;;;;;;;;5140814;27;20220;-62
2023/12/07 14:14:51;;;;;;;6.80;4.80;;;;;;;;;;5123375;27;20214;-60
2023/12/07 14:17:21;;;;;;;5.27;4.13;;;;;;;;;;5137193;27;20200;-59
2023/12/07 14:20:03;;;;;;;8.47;5.33;;;;;;;;;;5135553;27;20208;-60
2023/12/07 14:22:51;;;;;;;6.77;4.90;;;;;;;;;;5126874;27;20201;-60
2023/12/07 14:25:20;;;;;;;6.53;5.07;;;;;;;;;;5129918;27;20200;-60
2023/12/07 14:27:49;;;;;;;10.33;5.77;;;;;;;;;;5139479;27;20555;-60
2023/12/07 14:30:17;;;;;;;8.13;5.07;;;;;;;;;;5139015;27;20204;-60
2023/12/07 14:32:51;;;;;;;6.33;5.37;;;;;;;;;;5136846;27;20200;-60
2023/12/07 14:35:20;;;;;;;25.07;5.37;;;;;;;;;;5139168;27;20252;-60
2023/12/07 14:37:50;;;;;;;7.50;5.07;;;;;;;;;;5133950;27;20287;-60
2023/12/07 14:40:18;;;;;;;7.57;5.20;;;;;;;;;;5134292;27;20208;-60
2023/12/07 14:42:47;;;;;;;6.70;4.80;;;;;;;;;;5134427;27;20198;-60
2023/12/07 14:45:20;;;;;;;7.73;4.83;;;;;;;;;;5122569;27;20201;-60
2023/12/07 14:47:48;;;;;;;9.17;5.37;;;;;;;;;;5131979;27;20224;-59
2023/12/07 14:50:17;;;;;;;11.60;5.27;;;;;;;;;;5128049;27;20314;-60
2023/12/07 14:52:46;;;;;;;10.30;5.50;;;;;;;;;;5129626;27;20547;-59
2023/12/07 14:55:14;;;;;;;7.07;5.17;;;;;;;;;;5123930;27;20729;-61
2023/12/07 14:57:42;;;;;;;7.00;5.20;;;;;;;;;;5127318;27;20565;-60
2023/12/07 15:00:13;;;;;;;8.67;5.27;;;;;;;;;;5139236;27;20588;-59
2023/12/07 15:05:29;;;;;;;17.80;10.33;;;;;;;;;;5121409;27;20236;-60
2023/12/07 15:07:58;;;;;;;8.87;5.30;;;;;;;;;;5138401;27;20216;-59
2023/12/07 15:10:26;;;;;;;5.63;4.77;;;;;;;;;;5139007;27;20280;-59
2023/12/07 15:12:54;;;;;;;7.03;5.40;;;;;;;;;;5139971;27;20209;-61
2023/12/07 15:15:22;;;;;;;9.10;4.73;;;;;;;;;;5135722;27;20279;-59
2023/12/07 15:17:52;;;;;;;8.07;6.40;;;;;;;;;;5139389;27;20192;-60
2023/12/07 15:20:21;;;;;;;13.07;6.60;;;;;;;;;;5132263;27;20563;-59
2023/12/07 15:22:50;;;;;;;12.33;7.40;;;;;;;;;;5126465;27;20617;-59
2023/12/07 15:25:18;;;;;;;12.43;7.67;;;;;;;;;;5137370;27;20246;-59
2023/12/07 15:27:47;;;;;;;11.07;6.53;;;;;;;;;;5133030;27;20220;-58
2023/12/07 15:30:16;;;;;;;17.27;7.13;;;;;;;;;;5132289;27;20196;-60
2023/12/07 15:32:44;;;;;;;8.47;7.00;;;;;;;;;;5133395;27;20204;-61
2023/12/07 15:35:18;;;;;;;9.67;5.93;;;;;;;;;;5132463;27;20203;-59
2023/12/07 15:37:46;;;;;;;7.63;5.90;;;;;;;;;;5132334;27;20203;-59
2023/12/07 15:40:14;;;;;;;10.57;5.90;;;;;;;;;;5134566;27;20251;-61
2023/12/07 15:42:49;;;;;;;10.07;6.00;;;;;;;;;;5134441;27;20204;-61
2023/12/07 15:45:18;;;;;;;9.47;6.33;;;;;;;;;;5134639;27;20200;-62
2023/12/07 15:47:46;;;;;;;10.47;7.33;;;;;;;;;;5128621;27;20228;-62
2023/12/07 15:50:17;;;;;;;9.43;6.47;;;;;;;;;;5136490;27;20232;-62
2023/12/07 15:52:46;;;;;;;10.03;6.00;;;;;;;;;;5128084;27;20204;-61
2023/12/07 15:55:15;;;;;;;8.77;5.30;;;;;;;;;;5121689;27;20688;-62
2023/12/07 15:57:48;;;;;;;8.10;5.67;;;;;;;;;;5126344;27;20192;-62
2023/12/07 16:00:38;;;;;;;9.70;5.10;;;;;;;;;;5131150;27;20734;-61
2023/12/07 16:03:11;;;;;;;16.73;5.80;;;;;;;;;;5136633;27;20196;-62
2023/12/07 16:05:40;;;;;;;6.50;5.43;;;;;;;;;;5122015;27;20259;-62
2023/12/07 16:08:09;;;;;;;7.63;5.70;;;;;;;;;;5128534;27;20557;-62